sensor_id;sensor_type;location;lat;lon;timestamp;temperature;humidity
52799;DHT22;38667;42.872;74.622;2022-10-17T00:00:04;14.60;35.50
52799;DHT22;38667;42.872;74.622;2022-10-17T00:02:31;14.50;35.80
52799;DHT22;38667;42.872;74.622;2022-10-17T00:04:57;14.60;35.30
52799;DHT22;38667;42.872;74.622;2022-10-17T00:07:23;14.60;35.70
52799;DHT22;38667;42.872;74.622;2022-10-17T00:09:50;14.60;35.70
52799;DHT22;38667;42.872;74.622;2022-10-17T00:12:17;14.60;36.10
52799;DHT22;38667;42.872;74.622;2022-10-17T00:14:44;14.60;36.80
52799;DHT22;38667;42.872;74.622;2022-10-17T00:17:10;14.50;38.80
52799;DHT22;38667;42.872;74.622;2022-10-17T00:19:36;14.40;40.30
52799;DHT22;38667;42.872;74.622;2022-10-17T00:22:03;14.30;40.20
52799;DHT22;38667;42.872;74.622;2022-10-17T00:24:30;14.10;40.70
52799;DHT22;38667;42.872;74.622;2022-10-17T00:26:56;14.00;41.50
52799;DHT22;38667;42.872;74.622;2022-10-17T00:29:24;14.00;40.60
52799;DHT22;38667;42.872;74.622;2022-10-17T00:31:53;13.90;40.70
52799;DHT22;38667;42.872;74.622;2022-10-17T00:34:20;13.90;40.30
52799;DHT22;38667;42.872;74.622;2022-10-17T00:36:46;13.70;41.40
52799;DHT22;38667;42.872;74.622;2022-10-17T00:39:12;13.50;41.10
52799;DHT22;38667;42.872;74.622;2022-10-17T00:41:38;13.40;41.40
52799;DHT22;38667;42.872;74.622;2022-10-17T00:44:53;13.20;40.90
52799;DHT22;38667;42.872;74.622;2022-10-17T00:46:54;13.10;41.90
52799;DHT22;38667;42.872;74.622;2022-10-17T00:49:23;12.90;42.40
52799;DHT22;38667;42.872;74.622;2022-10-17T00:51:51;12.80;42.20
52799;DHT22;38667;42.872;74.622;2022-10-17T00:54:22;12.80;42.40
52799;DHT22;38667;42.872;74.622;2022-10-17T00:56:49;12.60;43.50
52799;DHT22;38667;42.872;74.622;2022-10-17T00:59:17;12.50;43.10
52799;DHT22;38667;42.872;74.622;2022-10-17T01:01:50;12.50;44.30
52799;DHT22;38667;42.872;74.622;2022-10-17T01:04:19;12.40;46.30
52799;DHT22;38667;42.872;74.622;2022-10-17T01:06:45;12.30;46.20
52799;DHT22;38667;42.872;74.622;2022-10-17T01:09:12;12.30;46.50
52799;DHT22;38667;42.872;74.622;2022-10-17T01:11:44;12.20;46.80
52799;DHT22;38667;42.872;74.622;2022-10-17T01:14:17;12.10;48.30
52799;DHT22;38667;42.872;74.622;2022-10-17T01:16:52;12.00;49.30
52799;DHT22;38667;42.872;74.622;2022-10-17T01:19:39;11.90;48.50
52799;DHT22;38667;42.872;74.622;2022-10-17T01:22:11;11.80;49.40
52799;DHT22;38667;42.872;74.622;2022-10-17T01:24:59;11.80;47.50
52799;DHT22;38667;42.872;74.622;2022-10-17T01:27:52;11.80;48.20
52799;DHT22;38667;42.872;74.622;2022-10-17T01:33:24;11.70;50.10
52799;DHT22;38667;42.872;74.622;2022-10-17T01:35:58;11.90;43.70
52799;DHT22;38667;42.872;74.622;2022-10-17T01:38:29;12.20;46.10
52799;DHT22;38667;42.872;74.622;2022-10-17T01:41:01;12.20;48.10
52799;DHT22;38667;42.872;74.622;2022-10-17T01:43:32;12.10;46.60
52799;DHT22;38667;42.872;74.622;2022-10-17T01:46:03;11.90;47.60
52799;DHT22;38667;42.872;74.622;2022-10-17T01:48:37;11.90;47.30
52799;DHT22;38667;42.872;74.622;2022-10-17T01:51:09;11.90;48.70
52799;DHT22;38667;42.872;74.622;2022-10-17T01:53:40;11.90;48.80
52799;DHT22;38667;42.872;74.622;2022-10-17T01:56:09;12.00;49.40
52799;DHT22;38667;42.872;74.622;2022-10-17T01:58:40;12.00;49.60
52799;DHT22;38667;42.872;74.622;2022-10-17T02:03:44;12.10;50.20
52799;DHT22;38667;42.872;74.622;2022-10-17T02:07:41;12.10;47.30
52799;DHT22;38667;42.872;74.622;2022-10-17T02:10:14;12.20;47.10
52799;DHT22;38667;42.872;74.622;2022-10-17T02:12:49;12.30;50.20
52799;DHT22;38667;42.872;74.622;2022-10-17T02:18:18;12.50;48.20
52799;DHT22;38667;42.872;74.622;2022-10-17T02:20:52;12.60;47.50
52799;DHT22;38667;42.872;74.622;2022-10-17T02:23:30;12.70;46.80
52799;DHT22;38667;42.872;74.622;2022-10-17T02:26:03;12.80;45.40
52799;DHT22;38667;42.872;74.622;2022-10-17T02:28:38;13.00;45.20
52799;DHT22;38667;42.872;74.622;2022-10-17T02:31:12;13.00;43.10
52799;DHT22;38667;42.872;74.622;2022-10-17T02:33:42;13.10;42.80
52799;DHT22;38667;42.872;74.622;2022-10-17T02:36:12;13.10;43.30
52799;DHT22;38667;42.872;74.622;2022-10-17T02:38:41;13.20;42.40
52799;DHT22;38667;42.872;74.622;2022-10-17T02:41:10;13.30;42.90
52799;DHT22;38667;42.872;74.622;2022-10-17T02:43:38;13.30;42.30
52799;DHT22;38667;42.872;74.622;2022-10-17T02:46:05;13.40;42.30
52799;DHT22;38667;42.872;74.622;2022-10-17T02:48:37;13.40;41.60
52799;DHT22;38667;42.872;74.622;2022-10-17T02:51:06;13.50;41.00
52799;DHT22;38667;42.872;74.622;2022-10-17T02:53:39;13.60;40.50
52799;DHT22;38667;42.872;74.622;2022-10-17T02:56:15;13.60;39.20
52799;DHT22;38667;42.872;74.622;2022-10-17T02:58:44;13.70;38.90
52799;DHT22;38667;42.872;74.622;2022-10-17T03:01:12;13.80;39.40
52799;DHT22;38667;42.872;74.622;2022-10-17T03:03:39;13.90;39.00
52799;DHT22;38667;42.872;74.622;2022-10-17T03:06:05;13.90;39.10
52799;DHT22;38667;42.872;74.622;2022-10-17T03:08:31;13.90;38.20
52799;DHT22;38667;42.872;74.622;2022-10-17T03:10:57;14.00;38.10
52799;DHT22;38667;42.872;74.622;2022-10-17T03:13:26;14.10;39.20
52799;DHT22;38667;42.872;74.622;2022-10-17T03:15:52;14.10;38.00
52799;DHT22;38667;42.872;74.622;2022-10-17T03:18:18;14.20;38.40
52799;DHT22;38667;42.872;74.622;2022-10-17T03:20:45;14.30;37.90
52799;DHT22;38667;42.872;74.622;2022-10-17T03:23:11;14.30;37.40
52799;DHT22;38667;42.872;74.622;2022-10-17T03:25:37;14.40;37.60
52799;DHT22;38667;42.872;74.622;2022-10-17T03:28:04;14.50;37.40
52799;DHT22;38667;42.872;74.622;2022-10-17T03:30:32;14.50;37.20
52799;DHT22;38667;42.872;74.622;2022-10-17T03:32:58;14.60;37.10
52799;DHT22;38667;42.872;74.622;2022-10-17T03:35:25;14.60;37.00
52799;DHT22;38667;42.872;74.622;2022-10-17T03:37:51;14.70;37.40
52799;DHT22;38667;42.872;74.622;2022-10-17T03:40:20;14.80;37.50
52799;DHT22;38667;42.872;74.622;2022-10-17T03:42:46;14.90;37.30
52799;DHT22;38667;42.872;74.622;2022-10-17T03:45:12;14.90;38.20
52799;DHT22;38667;42.872;74.622;2022-10-17T03:47:40;15.00;36.30
52799;DHT22;38667;42.872;74.622;2022-10-17T03:50:07;15.00;36.60
52799;DHT22;38667;42.872;74.622;2022-10-17T03:52:33;15.10;36.80
52799;DHT22;38667;42.872;74.622;2022-10-17T03:55:00;15.10;36.70
52799;DHT22;38667;42.872;74.622;2022-10-17T03:57:26;15.20;37.80
52799;DHT22;38667;42.872;74.622;2022-10-17T03:59:52;15.20;37.30
52799;DHT22;38667;42.872;74.622;2022-10-17T04:02:19;15.20;36.50
52799;DHT22;38667;42.872;74.622;2022-10-17T04:04:46;15.20;37.20
52799;DHT22;38667;42.872;74.622;2022-10-17T04:07:13;15.20;36.40
52799;DHT22;38667;42.872;74.622;2022-10-17T04:09:39;15.30;37.00
52799;DHT22;38667;42.872;74.622;2022-10-17T04:12:05;15.30;37.50
52799;DHT22;38667;42.872;74.622;2022-10-17T04:14:32;15.40;36.40
52799;DHT22;38667;42.872;74.622;2022-10-17T04:16:58;15.40;37.00
52799;DHT22;38667;42.872;74.622;2022-10-17T04:19:24;15.40;37.00
52799;DHT22;38667;42.872;74.622;2022-10-17T04:21:52;15.40;36.10
52799;DHT22;38667;42.872;74.622;2022-10-17T04:24:18;15.60;36.60
52799;DHT22;38667;42.872;74.622;2022-10-17T04:26:45;15.70;37.10
52799;DHT22;38667;42.872;74.622;2022-10-17T04:29:13;15.70;36.40
52799;DHT22;38667;42.872;74.622;2022-10-17T04:31:40;15.80;36.00
52799;DHT22;38667;42.872;74.622;2022-10-17T04:34:06;15.90;36.30
52799;DHT22;38667;42.872;74.622;2022-10-17T04:36:32;16.00;35.80
52799;DHT22;38667;42.872;74.622;2022-10-17T04:39:01;16.10;35.90
52799;DHT22;38667;42.872;74.622;2022-10-17T04:41:27;16.20;35.90
52799;DHT22;38667;42.872;74.622;2022-10-17T04:43:53;16.10;36.30
52799;DHT22;38667;42.872;74.622;2022-10-17T04:46:20;15.90;35.60
52799;DHT22;38667;42.872;74.622;2022-10-17T04:48:46;15.90;36.10
52799;DHT22;38667;42.872;74.622;2022-10-17T04:51:14;16.00;35.70
52799;DHT22;38667;42.872;74.622;2022-10-17T04:53:41;15.90;35.20
52799;DHT22;38667;42.872;74.622;2022-10-17T04:56:10;16.00;35.80
52799;DHT22;38667;42.872;74.622;2022-10-17T04:58:37;16.10;35.60
52799;DHT22;38667;42.872;74.622;2022-10-17T05:01:08;16.10;35.00
52799;DHT22;38667;42.872;74.622;2022-10-17T05:03:35;16.20;36.30
52799;DHT22;38667;42.872;74.622;2022-10-17T05:06:05;16.30;34.60
52799;DHT22;38667;42.872;74.622;2022-10-17T05:08:32;16.40;34.40
52799;DHT22;38667;42.872;74.622;2022-10-17T05:10:59;16.40;34.50
52799;DHT22;38667;42.872;74.622;2022-10-17T05:13:27;16.40;34.30
52799;DHT22;38667;42.872;74.622;2022-10-17T05:15:53;16.60;35.00
52799;DHT22;38667;42.872;74.622;2022-10-17T05:18:22;16.70;34.60
52799;DHT22;38667;42.872;74.622;2022-10-17T05:20:49;16.80;33.10
52799;DHT22;38667;42.872;74.622;2022-10-17T05:23:15;16.90;33.00
52799;DHT22;38667;42.872;74.622;2022-10-17T05:25:41;16.90;33.00
52799;DHT22;38667;42.872;74.622;2022-10-17T05:28:08;17.00;33.40
52799;DHT22;38667;42.872;74.622;2022-10-17T05:30:35;17.10;32.50
52799;DHT22;38667;42.872;74.622;2022-10-17T05:33:02;17.20;31.80
52799;DHT22;38667;42.872;74.622;2022-10-17T05:35:28;17.20;32.00
52799;DHT22;38667;42.872;74.622;2022-10-17T05:37:55;17.20;32.00
52799;DHT22;38667;42.872;74.622;2022-10-17T05:40:21;17.30;33.00
52799;DHT22;38667;42.872;74.622;2022-10-17T05:42:59;17.40;32.70
52799;DHT22;38667;42.872;74.622;2022-10-17T05:45:25;17.60;33.00
52799;DHT22;38667;42.872;74.622;2022-10-17T05:47:53;17.70;32.00
52799;DHT22;38667;42.872;74.622;2022-10-17T05:50:19;17.70;31.50
52799;DHT22;38667;42.872;74.622;2022-10-17T05:52:46;17.80;31.40
52799;DHT22;38667;42.872;74.622;2022-10-17T05:55:12;17.80;31.40
52799;DHT22;38667;42.872;74.622;2022-10-17T05:57:38;17.90;32.30
52799;DHT22;38667;42.872;74.622;2022-10-17T06:00:05;18.20;31.50
52799;DHT22;38667;42.872;74.622;2022-10-17T06:02:32;18.40;32.10
52799;DHT22;38667;42.872;74.622;2022-10-17T06:05:00;18.40;31.10
52799;DHT22;38667;42.872;74.622;2022-10-17T06:07:26;18.50;31.20
52799;DHT22;38667;42.872;74.622;2022-10-17T06:09:52;18.60;31.80
52799;DHT22;38667;42.872;74.622;2022-10-17T06:12:18;18.60;31.40
52799;DHT22;38667;42.872;74.622;2022-10-17T06:14:44;18.60;30.70
52799;DHT22;38667;42.872;74.622;2022-10-17T06:17:11;18.50;30.60
52799;DHT22;38667;42.872;74.622;2022-10-17T06:19:37;18.50;31.30
52799;DHT22;38667;42.872;74.622;2022-10-17T06:22:05;18.50;30.80
52799;DHT22;38667;42.872;74.622;2022-10-17T06:24:31;18.50;31.50
52799;DHT22;38667;42.872;74.622;2022-10-17T06:26:57;18.60;31.20
52799;DHT22;38667;42.872;74.622;2022-10-17T06:29:24;18.70;31.20
52799;DHT22;38667;42.872;74.622;2022-10-17T06:31:50;18.70;31.30
52799;DHT22;38667;42.872;74.622;2022-10-17T06:34:16;18.90;31.40
52799;DHT22;38667;42.872;74.622;2022-10-17T06:36:43;19.00;31.20
52799;DHT22;38667;42.872;74.622;2022-10-17T06:39:10;19.00;30.60
52799;DHT22;38667;42.872;74.622;2022-10-17T06:41:37;18.90;30.60
52799;DHT22;38667;42.872;74.622;2022-10-17T06:44:03;19.00;30.00
52799;DHT22;38667;42.872;74.622;2022-10-17T06:46:29;19.10;31.00
52799;DHT22;38667;42.872;74.622;2022-10-17T06:48:55;19.20;29.60
52799;DHT22;38667;42.872;74.622;2022-10-17T06:51:22;19.30;28.70
52799;DHT22;38667;42.872;74.622;2022-10-17T06:53:48;19.40;29.70
52799;DHT22;38667;42.872;74.622;2022-10-17T06:56:15;19.40;28.80
52799;DHT22;38667;42.872;74.622;2022-10-17T06:58:42;19.40;29.40
52799;DHT22;38667;42.872;74.622;2022-10-17T07:01:09;19.30;29.00
52799;DHT22;38667;42.872;74.622;2022-10-17T07:03:36;19.30;29.40
52799;DHT22;38667;42.872;74.622;2022-10-17T07:06:03;19.30;30.00
52799;DHT22;38667;42.872;74.622;2022-10-17T07:08:29;19.40;30.50
52799;DHT22;38667;42.872;74.622;2022-10-17T07:10:56;19.50;29.40
52799;DHT22;38667;42.872;74.622;2022-10-17T07:13:24;19.40;29.10
52799;DHT22;38667;42.872;74.622;2022-10-17T07:15:50;19.40;28.40
52799;DHT22;38667;42.872;74.622;2022-10-17T07:18:16;19.40;28.60
52799;DHT22;38667;42.872;74.622;2022-10-17T07:20:43;19.50;28.80
52799;DHT22;38667;42.872;74.622;2022-10-17T07:23:09;19.50;29.30
52799;DHT22;38667;42.872;74.622;2022-10-17T07:25:36;19.70;29.00
52799;DHT22;38667;42.872;74.622;2022-10-17T07:28:02;19.80;29.10
52799;DHT22;38667;42.872;74.622;2022-10-17T07:30:30;19.80;28.40
52799;DHT22;38667;42.872;74.622;2022-10-17T07:32:56;19.70;27.70
52799;DHT22;38667;42.872;74.622;2022-10-17T07:35:22;19.70;28.20
52799;DHT22;38667;42.872;74.622;2022-10-17T07:37:49;19.70;27.60
52799;DHT22;38667;42.872;74.622;2022-10-17T07:40:15;19.70;28.10
52799;DHT22;38667;42.872;74.622;2022-10-17T07:42:42;19.80;35.50
52799;DHT22;38667;42.872;74.622;2022-10-17T07:45:09;19.90;32.80
52799;DHT22;38667;42.872;74.622;2022-10-17T07:47:36;19.70;28.50
52799;DHT22;38667;42.872;74.622;2022-10-17T07:50:04;19.70;28.10
52799;DHT22;38667;42.872;74.622;2022-10-17T07:52:30;19.80;28.00
52799;DHT22;38667;42.872;74.622;2022-10-17T07:54:57;20.50;26.40
52799;DHT22;38667;42.872;74.622;2022-10-17T07:57:23;20.70;26.50
52799;DHT22;38667;42.872;74.622;2022-10-17T07:59:49;20.50;27.80
52799;DHT22;38667;42.872;74.622;2022-10-17T08:02:20;20.50;28.70
52799;DHT22;38667;42.872;74.622;2022-10-17T08:04:49;20.40;27.00
52799;DHT22;38667;42.872;74.622;2022-10-17T08:07:15;20.30;28.20
52799;DHT22;38667;42.872;74.622;2022-10-17T08:09:41;20.40;28.80
52799;DHT22;38667;42.872;74.622;2022-10-17T08:12:08;20.50;27.00
52799;DHT22;38667;42.872;74.622;2022-10-17T08:14:34;20.50;28.30
52799;DHT22;38667;42.872;74.622;2022-10-17T08:17:00;20.60;26.60
52799;DHT22;38667;42.872;74.622;2022-10-17T08:19:27;20.70;26.80
52799;DHT22;38667;42.872;74.622;2022-10-17T08:21:54;20.60;27.50
52799;DHT22;38667;42.872;74.622;2022-10-17T08:24:21;20.50;28.20
52799;DHT22;38667;42.872;74.622;2022-10-17T08:26:47;20.60;27.00
52799;DHT22;38667;42.872;74.622;2022-10-17T08:29:14;20.40;26.10
52799;DHT22;38667;42.872;74.622;2022-10-17T08:31:41;20.20;26.70
52799;DHT22;38667;42.872;74.622;2022-10-17T08:34:07;20.00;27.10
52799;DHT22;38667;42.872;74.622;2022-10-17T08:36:34;20.00;27.10
52799;DHT22;38667;42.872;74.622;2022-10-17T08:39:02;20.10;27.80
52799;DHT22;38667;42.872;74.622;2022-10-17T08:41:38;20.20;28.80
52799;DHT22;38667;42.872;74.622;2022-10-17T08:44:13;20.20;28.80
52799;DHT22;38667;42.872;74.622;2022-10-17T08:46:43;20.10;27.90
52799;DHT22;38667;42.872;74.622;2022-10-17T08:49:15;20.10;28.10
52799;DHT22;38667;42.872;74.622;2022-10-17T08:51:48;20.10;28.50
52799;DHT22;38667;42.872;74.622;2022-10-17T08:54:21;20.00;27.20
52799;DHT22;38667;42.872;74.622;2022-10-17T08:56:51;20.10;28.00
52799;DHT22;38667;42.872;74.622;2022-10-17T08:59:20;20.20;28.00
52799;DHT22;38667;42.872;74.622;2022-10-17T09:01:51;20.20;26.70
52799;DHT22;38667;42.872;74.622;2022-10-17T09:04:44;20.10;26.90
52799;DHT22;38667;42.872;74.622;2022-10-17T09:07:14;20.00;28.00
52799;DHT22;38667;42.872;74.622;2022-10-17T09:09:51;19.90;27.30
52799;DHT22;38667;42.872;74.622;2022-10-17T09:12:24;19.90;27.50
52799;DHT22;38667;42.872;74.622;2022-10-17T09:15:11;19.50;29.10
52799;DHT22;38667;42.872;74.622;2022-10-17T09:17:46;19.10;27.90
52799;DHT22;38667;42.872;74.622;2022-10-17T09:20:18;18.80;28.30
52799;DHT22;38667;42.872;74.622;2022-10-17T09:22:48;18.70;28.90
52799;DHT22;38667;42.872;74.622;2022-10-17T09:25:19;18.70;30.10
52799;DHT22;38667;42.872;74.622;2022-10-17T09:27:47;18.80;29.20
52799;DHT22;38667;42.872;74.622;2022-10-17T09:30:27;18.90;28.40
52799;DHT22;38667;42.872;74.622;2022-10-17T09:32:54;18.90;28.30
52799;DHT22;38667;42.872;74.622;2022-10-17T09:35:21;18.80;28.60
52799;DHT22;38667;42.872;74.622;2022-10-17T09:37:48;18.70;29.20
52799;DHT22;38667;42.872;74.622;2022-10-17T09:40:20;18.80;29.40
52799;DHT22;38667;42.872;74.622;2022-10-17T09:42:49;18.70;28.90
52799;DHT22;38667;42.872;74.622;2022-10-17T09:45:18;18.60;28.80
52799;DHT22;38667;42.872;74.622;2022-10-17T09:47:49;18.60;28.80
52799;DHT22;38667;42.872;74.622;2022-10-17T09:50:21;18.50;30.20
52799;DHT22;38667;42.872;74.622;2022-10-17T09:52:50;18.50;29.80
52799;DHT22;38667;42.872;74.622;2022-10-17T09:55:24;18.40;29.60
52799;DHT22;38667;42.872;74.622;2022-10-17T09:57:54;18.50;30.00
52799;DHT22;38667;42.872;74.622;2022-10-17T10:00:22;18.50;30.20
52799;DHT22;38667;42.872;74.622;2022-10-17T10:02:48;18.50;30.50
52799;DHT22;38667;42.872;74.622;2022-10-17T10:05:16;18.50;29.90
52799;DHT22;38667;42.872;74.622;2022-10-17T10:07:45;18.50;29.70
52799;DHT22;38667;42.872;74.622;2022-10-17T10:10:28;18.50;30.00
52799;DHT22;38667;42.872;74.622;2022-10-17T10:13:05;18.60;29.60
52799;DHT22;38667;42.872;74.622;2022-10-17T10:15:34;18.70;29.40
52799;DHT22;38667;42.872;74.622;2022-10-17T10:18:01;18.70;29.40
52799;DHT22;38667;42.872;74.622;2022-10-17T10:20:31;18.70;29.20
52799;DHT22;38667;42.872;74.622;2022-10-17T10:23:11;18.70;29.30
52799;DHT22;38667;42.872;74.622;2022-10-17T10:25:49;18.60;29.60
52799;DHT22;38667;42.872;74.622;2022-10-17T10:28:17;18.60;31.20
52799;DHT22;38667;42.872;74.622;2022-10-17T10:30:47;18.60;29.60
52799;DHT22;38667;42.872;74.622;2022-10-17T10:33:14;18.60;29.60
52799;DHT22;38667;42.872;74.622;2022-10-17T10:35:41;18.60;29.60
52799;DHT22;38667;42.872;74.622;2022-10-17T10:38:09;18.50;29.30
52799;DHT22;38667;42.872;74.622;2022-10-17T10:40:45;18.50;29.70
52799;DHT22;38667;42.872;74.622;2022-10-17T10:43:31;18.50;29.30
52799;DHT22;38667;42.872;74.622;2022-10-17T10:45:59;18.40;29.20
52799;DHT22;38667;42.872;74.622;2022-10-17T10:48:26;18.40;28.90
52799;DHT22;38667;42.872;74.622;2022-10-17T10:50:56;18.30;29.40
52799;DHT22;38667;42.872;74.622;2022-10-17T10:53:37;18.30;30.00
52799;DHT22;38667;42.872;74.622;2022-10-17T10:56:11;18.30;29.50
52799;DHT22;38667;42.872;74.622;2022-10-17T10:58:44;18.30;29.90
52799;DHT22;38667;42.872;74.622;2022-10-17T11:01:17;18.30;30.20
52799;DHT22;38667;42.872;74.622;2022-10-17T11:03:57;18.30;29.70
52799;DHT22;38667;42.872;74.622;2022-10-17T11:06:28;18.30;30.40
52799;DHT22;38667;42.872;74.622;2022-10-17T11:09:10;18.20;31.30
52799;DHT22;38667;42.872;74.622;2022-10-17T11:11:42;18.20;29.40
52799;DHT22;38667;42.872;74.622;2022-10-17T11:14:14;18.20;29.60
52799;DHT22;38667;42.872;74.622;2022-10-17T11:16:45;18.20;30.60
52799;DHT22;38667;42.872;74.622;2022-10-17T11:19:17;18.10;30.90
52799;DHT22;38667;42.872;74.622;2022-10-17T11:21:58;18.10;30.30
52799;DHT22;38667;42.872;74.622;2022-10-17T11:24:30;18.10;30.90
52799;DHT22;38667;42.872;74.622;2022-10-17T11:27:00;18.10;31.50
52799;DHT22;38667;42.872;74.622;2022-10-17T11:29:29;18.10;31.10
52799;DHT22;38667;42.872;74.622;2022-10-17T11:31:59;18.00;30.10
52799;DHT22;38667;42.872;74.622;2022-10-17T11:34:30;18.00;30.20
52799;DHT22;38667;42.872;74.622;2022-10-17T11:37:01;18.00;30.10
52799;DHT22;38667;42.872;74.622;2022-10-17T11:39:35;18.00;30.70
52799;DHT22;38667;42.872;74.622;2022-10-17T11:42:08;17.90;31.20
52799;DHT22;38667;42.872;74.622;2022-10-17T11:44:37;17.90;31.60
52799;DHT22;38667;42.872;74.622;2022-10-17T11:47:10;17.90;31.30
52799;DHT22;38667;42.872;74.622;2022-10-17T11:49:40;17.80;31.50
52799;DHT22;38667;42.872;74.622;2022-10-17T11:52:22;17.80;31.50
52799;DHT22;38667;42.872;74.622;2022-10-17T11:54:55;17.80;31.50
52799;DHT22;38667;42.872;74.622;2022-10-17T11:57:35;17.80;31.20
52799;DHT22;38667;42.872;74.622;2022-10-17T12:00:20;17.80;31.70
52799;DHT22;38667;42.872;74.622;2022-10-17T12:02:50;17.80;31.90
52799;DHT22;38667;42.872;74.622;2022-10-17T12:05:25;17.80;31.40
52799;DHT22;38667;42.872;74.622;2022-10-17T12:08:00;17.70;31.90
52799;DHT22;38667;42.872;74.622;2022-10-17T12:10:36;17.70;31.20
52799;DHT22;38667;42.872;74.622;2022-10-17T12:13:49;17.70;30.70
52799;DHT22;38667;42.872;74.622;2022-10-17T12:16:44;17.70;32.00
52799;DHT22;38667;42.872;74.622;2022-10-17T12:19:28;17.70;31.70
52799;DHT22;38667;42.872;74.622;2022-10-17T12:21:57;17.60;31.50
52799;DHT22;38667;42.872;74.622;2022-10-17T12:24:38;17.60;31.50
52799;DHT22;38667;42.872;74.622;2022-10-17T12:27:37;17.60;31.10
52799;DHT22;38667;42.872;74.622;2022-10-17T12:30:20;17.60;31.90
52799;DHT22;38667;42.872;74.622;2022-10-17T12:32:56;17.60;32.60
52799;DHT22;38667;42.872;74.622;2022-10-17T12:35:25;17.50;32.10
52799;DHT22;38667;42.872;74.622;2022-10-17T12:38:18;17.50;33.10
52799;DHT22;38667;42.872;74.622;2022-10-17T12:40:49;17.50;32.50
52799;DHT22;38667;42.872;74.622;2022-10-17T12:43:44;17.50;32.90
52799;DHT22;38667;42.872;74.622;2022-10-17T12:46:12;17.50;33.20
52799;DHT22;38667;42.872;74.622;2022-10-17T12:49:00;17.50;32.30
52799;DHT22;38667;42.872;74.622;2022-10-17T12:51:27;17.50;32.30
52799;DHT22;38667;42.872;74.622;2022-10-17T12:53:57;17.40;33.60
52799;DHT22;38667;42.872;74.622;2022-10-17T12:56:31;17.40;33.80
52799;DHT22;38667;42.872;74.622;2022-10-17T12:59:00;17.30;36.00
52799;DHT22;38667;42.872;74.622;2022-10-17T13:01:31;17.20;35.10
52799;DHT22;38667;42.872;74.622;2022-10-17T13:04:00;17.10;35.00
52799;DHT22;38667;42.872;74.622;2022-10-17T13:06:29;17.00;35.50
52799;DHT22;38667;42.872;74.622;2022-10-17T13:08:58;16.90;35.20
52799;DHT22;38667;42.872;74.622;2022-10-17T13:11:27;16.80;35.40
52799;DHT22;38667;42.872;74.622;2022-10-17T13:13:57;16.70;35.90
52799;DHT22;38667;42.872;74.622;2022-10-17T13:16:29;16.60;36.40
52799;DHT22;38667;42.872;74.622;2022-10-17T13:18:56;16.50;35.90
52799;DHT22;38667;42.872;74.622;2022-10-17T13:21:23;16.40;35.70
52799;DHT22;38667;42.872;74.622;2022-10-17T13:23:50;16.50;35.50
52799;DHT22;38667;42.872;74.622;2022-10-17T13:26:18;16.40;36.90
52799;DHT22;38667;42.872;74.622;2022-10-17T13:28:44;16.40;36.50
52799;DHT22;38667;42.872;74.622;2022-10-17T13:31:27;16.30;36.20
52799;DHT22;38667;42.872;74.622;2022-10-17T13:33:57;16.30;36.70
52799;DHT22;38667;42.872;74.622;2022-10-17T13:36:24;16.30;36.60
52799;DHT22;38667;42.872;74.622;2022-10-17T13:38:51;16.20;35.90
52799;DHT22;38667;42.872;74.622;2022-10-17T13:41:23;16.20;35.80
52799;DHT22;38667;42.872;74.622;2022-10-17T13:43:50;16.20;35.90
52799;DHT22;38667;42.872;74.622;2022-10-17T13:46:24;16.10;36.90
52799;DHT22;38667;42.872;74.622;2022-10-17T13:48:51;16.10;36.90
52799;DHT22;38667;42.872;74.622;2022-10-17T13:51:19;16.10;37.00
52799;DHT22;38667;42.872;74.622;2022-10-17T13:53:45;16.00;36.30
52799;DHT22;38667;42.872;74.622;2022-10-17T13:56:18;16.00;37.20
52799;DHT22;38667;42.872;74.622;2022-10-17T13:58:46;16.00;38.60
52799;DHT22;38667;42.872;74.622;2022-10-17T14:01:13;16.10;37.90
52799;DHT22;38667;42.872;74.622;2022-10-17T14:03:40;16.10;38.70
52799;DHT22;38667;42.872;74.622;2022-10-17T14:06:16;16.10;37.80
52799;DHT22;38667;42.872;74.622;2022-10-17T14:08:57;16.00;37.20
52799;DHT22;38667;42.872;74.622;2022-10-17T14:11:30;15.90;38.10
52799;DHT22;38667;42.872;74.622;2022-10-17T14:13:58;15.90;38.60
52799;DHT22;38667;42.872;74.622;2022-10-17T14:16:32;15.90;37.90
52799;DHT22;38667;42.872;74.622;2022-10-17T14:18:59;15.90;38.80
52799;DHT22;38667;42.872;74.622;2022-10-17T14:21:26;15.90;39.30
52799;DHT22;38667;42.872;74.622;2022-10-17T14:24:23;15.90;39.80
52799;DHT22;38667;42.872;74.622;2022-10-17T14:26:52;15.80;40.60
52799;DHT22;38667;42.872;74.622;2022-10-17T14:29:22;15.70;38.20
52799;DHT22;38667;42.872;74.622;2022-10-17T14:31:48;15.70;38.40
52799;DHT22;38667;42.872;74.622;2022-10-17T14:34:21;15.70;39.00
52799;DHT22;38667;42.872;74.622;2022-10-17T14:36:50;15.70;38.30
52799;DHT22;38667;42.872;74.622;2022-10-17T14:39:21;15.80;37.80
52799;DHT22;38667;42.872;74.622;2022-10-17T14:41:50;15.90;36.60
52799;DHT22;38667;42.872;74.622;2022-10-17T14:44:22;16.00;37.60
52799;DHT22;38667;42.872;74.622;2022-10-17T14:46:54;16.00;38.10
52799;DHT22;38667;42.872;74.622;2022-10-17T14:49:26;15.90;38.30
52799;DHT22;38667;42.872;74.622;2022-10-17T14:52:25;15.80;39.20
52799;DHT22;38667;42.872;74.622;2022-10-17T14:54:53;15.80;39.00
52799;DHT22;38667;42.872;74.622;2022-10-17T14:57:24;15.70;38.60
52799;DHT22;38667;42.872;74.622;2022-10-17T14:59:52;15.70;40.40
52799;DHT22;38667;42.872;74.622;2022-10-17T15:02:19;15.70;40.00
52799;DHT22;38667;42.872;74.622;2022-10-17T15:04:45;15.60;39.90
52799;DHT22;38667;42.872;74.622;2022-10-17T15:07:13;15.60;40.30
52799;DHT22;38667;42.872;74.622;2022-10-17T15:09:40;15.60;40.50
52799;DHT22;38667;42.872;74.622;2022-10-17T15:12:12;15.60;37.90
52799;DHT22;38667;42.872;74.622;2022-10-17T15:14:39;15.70;39.10
52799;DHT22;38667;42.872;74.622;2022-10-17T15:17:10;15.70;40.70
52799;DHT22;38667;42.872;74.622;2022-10-17T15:19:37;15.70;40.40
52799;DHT22;38667;42.872;74.622;2022-10-17T15:22:04;15.80;36.00
52799;DHT22;38667;42.872;74.622;2022-10-17T15:24:30;15.90;35.70
52799;DHT22;38667;42.872;74.622;2022-10-17T15:26:56;15.90;38.70
52799;DHT22;38667;42.872;74.622;2022-10-17T15:29:24;15.90;38.10
52799;DHT22;38667;42.872;74.622;2022-10-17T15:31:50;15.80;39.10
52799;DHT22;38667;42.872;74.622;2022-10-17T15:34:17;15.70;39.50
52799;DHT22;38667;42.872;74.622;2022-10-17T15:36:48;15.70;38.40
52799;DHT22;38667;42.872;74.622;2022-10-17T15:39:15;15.60;40.30
52799;DHT22;38667;42.872;74.622;2022-10-17T15:41:41;15.50;40.00